createdAt,value
2022-09-12T00:04:28.822Z,15.70
2022-09-12T00:09:32.163Z,15.70
2022-09-12T00:14:36.901Z,15.60
2022-09-12T00:19:40.406Z,15.60
2022-09-12T00:24:43.791Z,15.70
2022-09-12T00:29:48.403Z,15.70
2022-09-12T00:34:51.750Z,15.80
2022-09-12T00:39:55.352Z,15.90
2022-09-12T00:45:00.389Z,15.80
2022-09-12T00:50:08.545Z,15.80
2022-09-12T00:55:16.453Z,15.80
2022-09-12T01:00:23.459Z,15.80
2022-09-12T01:05:28.506Z,15.70
2022-09-12T01:10:32.594Z,15.70
2022-09-12T01:15:39.164Z,15.70
2022-09-12T01:20:52.369Z,15.70
2022-09-12T01:26:11.408Z,15.60
2022-09-12T01:31:21.451Z,15.50
2022-09-12T01:36:42.482Z,15.50
2022-09-12T01:41:55.893Z,15.50
2022-09-12T01:47:08.517Z,15.40
2022-09-12T01:52:19.505Z,15.40
2022-09-12T01:57:30.285Z,15.50
2022-09-12T02:02:39.674Z,15.50
2022-09-12T02:07:46.955Z,15.40
2022-09-12T02:12:54.118Z,15.40
2022-09-12T02:18:01.688Z,15.30
2022-09-12T02:23:08.933Z,15.30
2022-09-12T02:28:15.344Z,15.30
2022-09-12T02:33:26.771Z,15.30
2022-09-12T02:38:39.186Z,15.40
2022-09-12T02:43:42.621Z,15.40
2022-09-12T02:48:47.314Z,15.40
2022-09-12T02:53:51.090Z,15.40
2022-09-12T02:58:55.757Z,15.40
2022-09-12T03:04:21.809Z,15.40
2022-09-12T03:09:32.095Z,15.40
2022-09-12T03:15:01.727Z,15.40
2022-09-12T03:20:11.759Z,15.40
2022-09-12T03:25:19.124Z,15.40
2022-09-12T03:30:22.475Z,15.30
2022-09-12T03:35:27.285Z,15.30
2022-09-12T03:40:30.572Z,15.30
2022-09-12T03:45:34.096Z,15.30
2022-09-12T03:50:38.845Z,15.30
2022-09-12T03:55:42.455Z,15.20
2022-09-12T04:00:46.202Z,15.20
2022-09-12T04:05:51.523Z,15.30
2022-09-12T04:10:54.837Z,15.30
2022-09-12T04:15:58.585Z,15.40
2022-09-12T04:21:07.283Z,15.40
2022-09-12T04:26:11.539Z,15.50
2022-09-12T04:31:17.815Z,15.40
2022-09-12T04:36:22.887Z,15.40
2022-09-12T04:41:28.543Z,15.40
2022-09-12T04:46:33.615Z,15.40
2022-09-12T04:51:42.144Z,15.30
2022-09-12T04:56:47.324Z,15.30
2022-09-12T05:01:51.014Z,15.40
2022-09-12T05:06:55.759Z,15.40
2022-09-12T05:12:04.095Z,15.50
2022-09-12T05:17:08.686Z,15.50
2022-09-12T05:22:13.309Z,15.60
2022-09-12T05:27:16.651Z,15.50
2022-09-12T05:32:20.788Z,15.60
2022-09-12T05:37:25.668Z,15.60
2022-09-12T05:42:31.414Z,15.60
2022-09-12T05:47:34.958Z,15.60
2022-09-12T05:52:39.662Z,15.60
2022-09-12T05:57:45.836Z,15.60
2022-09-12T06:02:53.267Z,15.60
2022-09-12T06:07:58.009Z,15.70
2022-09-12T06:13:01.345Z,15.70
2022-09-12T06:18:04.856Z,15.80
2022-09-12T06:23:09.513Z,15.80
2022-09-12T06:28:12.862Z,15.90
2022-09-12T06:33:16.505Z,15.90
2022-09-12T06:38:21.181Z,15.90
2022-09-12T06:43:24.725Z,15.90
2022-09-12T06:48:28.687Z,16.00
2022-09-12T06:53:34.397Z,16.10
2022-09-12T06:58:38.722Z,16.20
2022-09-12T07:03:43.308Z,16.30
2022-09-12T07:08:48.754Z,16.40
2022-09-12T07:13:54.178Z,16.40
2022-09-12T07:18:59.561Z,16.40
2022-09-12T07:24:04.680Z,16.50
2022-09-12T07:29:34.749Z,16.50
2022-09-12T07:34:32.848Z,16.50
2022-09-12T07:39:37.918Z,16.50
2022-09-12T07:44:41.511Z,16.60
2022-09-12T07:49:45.169Z,16.70
2022-09-12T07:54:49.845Z,16.70
2022-09-12T07:59:53.566Z,16.70
2022-09-12T08:04:57.373Z,16.80
2022-09-12T08:10:02.297Z,16.80
2022-09-12T08:15:06.462Z,16.90
2022-09-12T08:20:10.405Z,17.00
2022-09-12T08:25:15.105Z,17.10
2022-09-12T08:30:18.929Z,17.20
2022-09-12T08:35:22.313Z,17.30
2022-09-12T08:40:27.094Z,17.50
2022-09-12T08:45:37.212Z,17.70
2022-09-12T08:50:49.227Z,17.70
2022-09-12T08:55:58.788Z,17.80
2022-09-12T09:01:08.394Z,17.80
2022-09-12T09:06:23.664Z,17.80
2022-09-12T09:11:58.709Z,17.80
2022-09-12T09:17:03.060Z,18.00
2022-09-12T09:22:12.141Z,18.10
2022-09-12T09:27:40.328Z,18.20
2022-09-12T09:32:47.981Z,18.20
2022-09-12T09:38:03.103Z,18.20
2022-09-12T09:43:20.632Z,18.10
2022-09-12T09:48:28.243Z,18.00
2022-09-12T09:53:38.357Z,18.00
2022-09-12T09:58:43.657Z,17.90
2022-09-12T10:03:52.394Z,17.90
2022-09-12T10:09:09.486Z,17.90
2022-09-12T10:14:35.108Z,18.10
2022-09-12T10:19:40.772Z,18.30
2022-09-12T10:24:49.959Z,18.50
2022-09-12T10:30:01.264Z,18.70
2022-09-12T10:35:09.061Z,18.80
2022-09-12T10:40:25.246Z,18.90
2022-09-12T10:45:32.477Z,18.90
2022-09-12T10:50:41.623Z,19.00
2022-09-12T10:55:59.644Z,19.10
2022-09-12T11:01:15.478Z,19.20
2022-09-12T11:06:27.198Z,19.30
2022-09-12T11:11:54.921Z,19.40
2022-09-12T11:17:13.737Z,19.60
2022-09-12T11:22:32.069Z,19.80
2022-09-12T11:27:50.740Z,20.00
2022-09-12T11:33:29.668Z,20.20
2022-09-12T11:38:57.487Z,20.20
2022-09-12T11:44:08.375Z,20.30
2022-09-12T11:49:23.691Z,20.40
2022-09-12T11:54:34.746Z,20.40
2022-09-12T11:59:45.965Z,20.50
2022-09-12T12:05:02.792Z,20.70
2022-09-12T12:10:09.776Z,21.00
2022-09-12T12:15:17.737Z,21.10
2022-09-12T12:20:21.395Z,21.00
2022-09-12T12:25:40.068Z,20.80
2022-09-12T12:31:03.079Z,20.70
2022-09-12T12:36:07.200Z,20.50
2022-09-12T12:41:46.512Z,20.30
2022-09-12T12:47:16.497Z,20.30
2022-09-12T12:52:20.524Z,20.30
2022-09-12T12:57:50.408Z,20.40
2022-09-12T13:02:57.981Z,20.40
2022-09-12T13:08:07.819Z,20.60
2022-09-12T13:13:24.690Z,20.80
2022-09-12T13:18:30.986Z,21.00
2022-09-12T13:23:35.206Z,21.00
2022-09-12T13:28:40.479Z,21.00
2022-09-12T13:33:47.231Z,21.00
2022-09-12T13:39:06.499Z,20.80
2022-09-12T13:44:15.991Z,20.60
2022-09-12T13:49:28.454Z,20.60
2022-09-12T13:54:33.545Z,20.60
2022-09-12T13:59:42.721Z,20.50
2022-09-12T14:05:05.730Z,20.50
2022-09-12T14:10:09.211Z,20.60
2022-09-12T14:15:22.268Z,20.60
2022-09-12T14:20:25.877Z,20.60
2022-09-12T14:25:39.063Z,20.70
2022-09-12T14:30:59.792Z,20.80
2022-09-12T14:36:24.100Z,21.00
2022-09-12T14:41:30.620Z,21.20
2022-09-12T14:46:37.072Z,21.30
2022-09-12T14:51:47.111Z,21.20
2022-09-12T14:56:56.981Z,21.20
2022-09-12T15:02:22.427Z,21.20
2022-09-12T15:07:34.706Z,21.10
2022-09-12T15:12:38.030Z,21.10
2022-09-12T15:17:43.052Z,21.00
2022-09-12T15:22:46.807Z,20.80
2022-09-12T15:27:53.777Z,20.70
2022-09-12T15:33:00.072Z,20.60
2022-09-12T15:38:03.460Z,20.60
2022-09-12T15:43:06.807Z,20.50
2022-09-12T15:48:11.855Z,20.40
2022-09-12T15:53:17.019Z,20.40
2022-09-12T15:58:20.694Z,20.40
2022-09-12T16:03:27.609Z,20.50
2022-09-12T16:08:32.954Z,20.50
2022-09-12T16:13:36.496Z,20.50
2022-09-12T16:18:42.292Z,20.50
2022-09-12T16:23:46.561Z,20.50
2022-09-12T16:28:56.173Z,20.50
2022-09-12T16:34:01.069Z,20.50
2022-09-12T16:39:04.565Z,20.50
2022-09-12T16:44:08.039Z,20.50
2022-09-12T16:49:13.058Z,20.40
2022-09-12T16:54:17.200Z,20.20
2022-09-12T16:59:20.537Z,20.10
2022-09-12T17:04:25.479Z,20.00
2022-09-12T17:09:29.450Z,19.90
2022-09-12T17:14:32.933Z,19.90
2022-09-12T17:19:37.911Z,19.90
2022-09-12T17:24:41.966Z,19.90
2022-09-12T17:29:45.604Z,19.90
2022-09-12T17:34:50.266Z,19.90
2022-09-12T17:39:53.753Z,19.80
2022-09-12T17:44:58.510Z,19.70
2022-09-12T17:50:30.004Z,19.70
2022-09-12T17:55:26.497Z,19.60
2022-09-12T18:00:44.951Z,19.40
2022-09-12T18:05:52.975Z,19.40
2022-09-12T18:11:05.079Z,19.30
2022-09-12T18:16:11.192Z,19.30
2022-09-12T18:21:16.116Z,19.20
2022-09-12T18:26:19.457Z,19.10
2022-09-12T18:31:25.495Z,19.00
2022-09-12T18:36:30.869Z,19.00
2022-09-12T18:41:34.537Z,18.90
2022-09-12T18:46:39.054Z,18.80
2022-09-12T18:51:44.550Z,18.80
2022-09-12T18:56:48.099Z,18.80
2022-09-12T19:01:51.550Z,18.70
2022-09-12T19:06:56.240Z,18.60
2022-09-12T19:11:59.548Z,18.60
2022-09-12T19:17:03.385Z,18.50
2022-09-12T19:22:08.465Z,18.40
2022-09-12T19:27:13.888Z,18.40
2022-09-12T19:32:17.245Z,18.30
2022-09-12T19:37:21.931Z,18.30
2022-09-12T19:42:25.359Z,18.20
2022-09-12T19:47:29.251Z,18.10
2022-09-12T19:52:34.154Z,18.10
2022-09-12T19:57:37.615Z,18.00
2022-09-12T20:02:40.984Z,17.90
2022-09-12T20:07:45.784Z,17.90
2022-09-12T20:12:49.178Z,17.90
2022-09-12T20:17:55.637Z,17.90
2022-09-12T20:23:00.443Z,17.80
2022-09-12T20:28:04.125Z,17.70
2022-09-12T20:33:07.473Z,17.60
2022-09-12T20:38:12.689Z,17.50
2022-09-12T20:43:16.126Z,17.40
2022-09-12T20:48:19.475Z,17.40
2022-09-12T20:53:24.419Z,17.40
2022-09-12T20:58:28.026Z,17.30
2022-09-12T21:03:31.508Z,17.30
2022-09-12T21:08:37.226Z,17.20
2022-09-12T21:13:40.994Z,17.20
2022-09-12T21:18:44.610Z,17.10
2022-09-12T21:23:50.738Z,17.00
2022-09-12T21:28:54.308Z,16.90
2022-09-12T21:33:57.876Z,16.90
2022-09-12T21:39:02.553Z,16.80
2022-09-12T21:44:06.006Z,16.80
2022-09-12T21:49:09.613Z,16.80
2022-09-12T21:54:14.452Z,16.80
2022-09-12T21:59:17.758Z,16.70
2022-09-12T22:04:21.048Z,16.60
2022-09-12T22:09:25.917Z,16.60
2022-09-12T22:14:29.708Z,16.50
2022-09-12T22:19:33.143Z,16.40
2022-09-12T22:24:38.200Z,16.40
2022-09-12T22:29:42.081Z,16.30
2022-09-12T22:34:45.894Z,16.30
2022-09-12T22:39:50.658Z,16.30
2022-09-12T22:44:54.025Z,16.30
2022-09-12T22:49:57.349Z,16.30
2022-09-12T22:55:02.271Z,16.30
2022-09-12T23:00:07.722Z,16.20
2022-09-12T23:05:11.689Z,16.20
2022-09-12T23:10:16.902Z,16.10
2022-09-12T23:15:20.232Z,16.10
2022-09-12T23:20:23.762Z,16.00
2022-09-12T23:25:28.537Z,15.90
2022-09-12T23:30:32.521Z,15.90
2022-09-12T23:35:36.698Z,15.80
2022-09-12T23:40:41.430Z,15.70
2022-09-12T23:45:44.790Z,15.70
2022-09-12T23:50:49.449Z,15.70
2022-09-12T23:55:54.449Z,15.70
